UAE60 EDDH-OMDB
Flight info
| Callsign | UAE60 |
|---|---|
| Flight time | N/A |
| Altitude | 35000 |
| Route | RAMAR6G RAMAR DCT PABMI DCT RADEL DCT GERGA DCT SUBIX DCT VAGON DCT KELEL DCT KEKED DCT KARIL DCT MAXOV DCT ARTAT UP975 ERGUN/N0492F370 UL124 BONAM L319 DASDO L223 LAM G666 ORSAR R784 TATLA L223 VUTEB |
| Aircraft | B77W/H-SDE1E2E3FGHIJ2J3J4J5M1RWXY/LB1D1 |
Departure
| Time | 2026-05-05 10:01 |
|---|---|
| Airport | Hamburg Helmut Schmidt Airport (EDDH) |
Arrival
| Time | N/A |
|---|---|
| Airport | Dubai International Airport (OMDB) |
| Time | Latitude | Longitude | Altitude | Speed | Heading |
|---|---|---|---|---|---|
| 2026-05-05 09:27 | 53.62948 | 10.00273 | 53 ft | 0 kts | 122° |
| 2026-05-05 09:52 | 53.62950 | 10.00267 | 53 ft | 3 kts | 122° |
| 2026-05-05 09:52 | 53.62965 | 10.00229 | 46 ft | 4 kts | 122° |
| 2026-05-05 09:53 | 53.62977 | 10.00197 | 46 ft | 4 kts | 120° |
| 2026-05-05 09:53 | 53.62985 | 10.00165 | 46 ft | 4 kts | 86° |
| 2026-05-05 09:53 | 53.62980 | 10.00134 | 47 ft | 4 kts | 49° |
| 2026-05-05 09:53 | 53.62963 | 10.00109 | 48 ft | 1 kts | 33° |
| 2026-05-05 09:56 | 53.62978 | 10.00126 | 47 ft | 5 kts | 33° |
| 2026-05-05 09:56 | 53.63017 | 10.00168 | 47 ft | 8 kts | 33° |
| 2026-05-05 09:56 | 53.63078 | 10.00221 | 48 ft | 11 kts | 9° |
| 2026-05-05 09:57 | 53.63164 | 10.00222 | 53 ft | 14 kts | 359° |
| 2026-05-05 09:57 | 53.63244 | 10.00186 | 50 ft | 0 kts | 313° |
| 2026-05-05 09:57 | 53.63245 | 10.00176 | 50 ft | 1 kts | 286° |
| 2026-05-05 09:57 | 53.63243 | 10.00162 | 51 ft | 1 kts | 253° |
| 2026-05-05 09:58 | 53.63232 | 10.00141 | 50 ft | 4 kts | 230° |
| 2026-05-05 09:58 | 53.63195 | 10.00066 | 47 ft | 10 kts | 230° |
| 2026-05-05 09:58 | 53.63150 | 9.99974 | 51 ft | 10 kts | 230° |
| 2026-05-05 09:58 | 53.63098 | 9.99899 | 51 ft | 10 kts | 192° |
| 2026-05-05 09:59 | 53.63029 | 9.99930 | 47 ft | 10 kts | 154° |
| 2026-05-05 09:59 | 53.62964 | 9.99985 | 50 ft | 10 kts | 153° |
| 2026-05-05 09:59 | 53.62896 | 10.00027 | 52 ft | 11 kts | 179° |
| 2026-05-05 09:59 | 53.62843 | 9.99949 | 50 ft | 11 kts | 237° |
| 2026-05-05 10:00 | 53.62815 | 9.99822 | 50 ft | 12 kts | 274° |
| 2026-05-05 10:00 | 53.62880 | 9.99735 | 50 ft | 12 kts | 332° |
| 2026-05-05 10:00 | 53.63051 | 9.99588 | 50 ft | 68 kts | 333° |
| 2026-05-05 10:00 | 53.63803 | 9.98941 | 50 ft | 173 kts | 332° |
| 2026-05-05 10:01 | 53.65096 | 9.97791 | 558 ft | 229 kts | 335° |
| 2026-05-05 10:01 | 53.66500 | 9.96586 | 2200 ft | 221 kts | 335° |
| 2026-05-05 10:01 | 53.67861 | 9.95455 | 3495 ft | 215 kts | 333° |
| 2026-05-05 10:01 | 53.69245 | 9.94632 | 4418 ft | 214 kts | 354° |
| 2026-05-05 10:02 | 53.70781 | 9.94635 | 4953 ft | 233 kts | 358° |
| 2026-05-05 10:02 | 53.72518 | 9.94827 | 4988 ft | 266 kts | 13° |
| 2026-05-05 10:02 | 53.74117 | 9.96372 | 4991 ft | 271 kts | 48° |
| 2026-05-05 10:02 | 53.75043 | 9.99101 | 5027 ft | 269 kts | 66° |
| 2026-05-05 10:03 | 53.75796 | 10.02035 | 5650 ft | 275 kts | 65° |
| 2026-05-05 10:03 | 53.76589 | 10.05020 | 6476 ft | 282 kts | 65° |
| 2026-05-05 10:03 | 53.77424 | 10.08072 | 7267 ft | 288 kts | 64° |
| 2026-05-05 10:03 | 53.78279 | 10.11140 | 8165 ft | 291 kts | 64° |
| 2026-05-05 10:04 | 53.79156 | 10.14250 | 9014 ft | 294 kts | 64° |
| 2026-05-05 10:04 | 53.80051 | 10.17399 | 9861 ft | 299 kts | 64° |
| 2026-05-05 10:04 | 53.80957 | 10.20572 | 10486 ft | 310 kts | 64° |
| 2026-05-05 10:04 | 53.81936 | 10.23993 | 10728 ft | 337 kts | 64° |
| 2026-05-05 10:05 | 53.82998 | 10.27706 | 10949 ft | 363 kts | 64° |
| 2026-05-05 10:05 | 53.84104 | 10.31694 | 11243 ft | 380 kts | 69° |
| 2026-05-05 10:05 | 53.84590 | 10.36140 | 11762 ft | 391 kts | 92° |
| 2026-05-05 10:05 | 53.84148 | 10.40684 | 12535 ft | 392 kts | 105° |
| 2026-05-05 10:06 | 53.83484 | 10.45220 | 13273 ft | 400 kts | 105° |
| 2026-05-05 10:06 | 53.82821 | 10.49811 | 14135 ft | 405 kts | 104° |
| 2026-05-05 10:06 | 53.82163 | 10.54471 | 14985 ft | 409 kts | 104° |
| 2026-05-05 10:06 | 53.81513 | 10.59182 | 15805 ft | 414 kts | 104° |
| 2026-05-05 10:07 | 53.80857 | 10.63955 | 16576 ft | 419 kts | 104° |
| 2026-05-05 10:07 | 53.80168 | 10.68778 | 17314 ft | 423 kts | 108° |
| 2026-05-05 10:07 | 53.78991 | 10.73276 | 17939 ft | 426 kts | 124° |
| 2026-05-05 10:07 | 53.77343 | 10.77475 | 18637 ft | 429 kts | 126° |
| 2026-05-05 10:08 | 53.75672 | 10.81681 | 19327 ft | 433 kts | 126° |
| 2026-05-05 10:08 | 53.74029 | 10.85974 | 20052 ft | 437 kts | 124° |
| 2026-05-05 10:08 | 53.72397 | 10.90357 | 20757 ft | 442 kts | 124° |
| 2026-05-05 10:08 | 53.70760 | 10.94784 | 21416 ft | 447 kts | 124° |
| 2026-05-05 10:09 | 53.69042 | 10.99175 | 22071 ft | 450 kts | 127° |
| 2026-05-05 10:09 | 53.67234 | 11.03512 | 22723 ft | 453 kts | 128° |
| 2026-05-05 10:09 | 53.65384 | 11.07857 | 23350 ft | 457 kts | 128° |
| 2026-05-05 10:09 | 53.63521 | 11.12230 | 23885 ft | 461 kts | 128° |
| 2026-05-05 10:10 | 53.61649 | 11.16650 | 24391 ft | 465 kts | 128° |
| 2026-05-05 10:10 | 53.59771 | 11.21111 | 24891 ft | 469 kts | 128° |
| 2026-05-05 10:10 | 53.57890 | 11.25593 | 25381 ft | 472 kts | 128° |
| 2026-05-05 10:10 | 53.55981 | 11.30148 | 25877 ft | 476 kts | 128° |
| 2026-05-05 10:11 | 53.54067 | 11.34711 | 26339 ft | 480 kts | 128° |
| 2026-05-05 10:11 | 53.52122 | 11.39338 | 26800 ft | 483 kts | 128° |
| 2026-05-05 10:11 | 53.50184 | 11.43940 | 27245 ft | 486 kts | 128° |
| 2026-05-05 10:11 | 53.48238 | 11.48548 | 27665 ft | 490 kts | 128° |
| 2026-05-05 10:12 | 53.46266 | 11.53211 | 28081 ft | 493 kts | 129° |
| 2026-05-05 10:12 | 53.44259 | 11.57951 | 28481 ft | 496 kts | 129° |
| 2026-05-05 10:12 | 53.42247 | 11.62689 | 28858 ft | 500 kts | 129° |
| 2026-05-05 10:12 | 53.40297 | 11.67481 | 29224 ft | 504 kts | 126° |
| 2026-05-05 10:13 | 53.38576 | 11.72631 | 29548 ft | 510 kts | 121° |
| 2026-05-05 10:13 | 53.36956 | 11.77931 | 29853 ft | 513 kts | 120° |
| 2026-05-05 10:13 | 53.35326 | 11.83304 | 30174 ft | 514 kts | 121° |
| 2026-05-05 10:13 | 53.33700 | 11.88651 | 30555 ft | 514 kts | 121° |
| 2026-05-05 10:14 | 53.32087 | 11.93907 | 30960 ft | 513 kts | 121° |
| 2026-05-05 10:14 | 53.30438 | 11.99235 | 31325 ft | 512 kts | 121° |
| 2026-05-05 10:14 | 53.28806 | 12.04470 | 31683 ft | 512 kts | 122° |
| 2026-05-05 10:14 | 53.27148 | 12.09761 | 32055 ft | 511 kts | 122° |
| 2026-05-05 10:15 | 53.25505 | 12.14991 | 32477 ft | 511 kts | 122° |
| 2026-05-05 10:15 | 53.23846 | 12.20257 | 32869 ft | 510 kts | 122° |
| 2026-05-05 10:15 | 53.22209 | 12.25445 | 33214 ft | 510 kts | 122° |
| 2026-05-05 10:15 | 53.20547 | 12.30702 | 33569 ft | 509 kts | 122° |
| 2026-05-05 10:16 | 53.18900 | 12.35904 | 33902 ft | 508 kts | 122° |
| 2026-05-05 10:16 | 53.17246 | 12.41120 | 34181 ft | 508 kts | 122° |
| 2026-05-05 10:16 | 53.15587 | 12.46339 | 34441 ft | 507 kts | 122° |
| 2026-05-05 10:16 | 53.13949 | 12.51480 | 34726 ft | 506 kts | 122° |
| 2026-05-05 10:17 | 53.12291 | 12.56672 | 34850 ft | 509 kts | 122° |
| 2026-05-05 10:17 | 53.10609 | 12.61924 | 34909 ft | 511 kts | 122° |
| 2026-05-05 10:17 | 53.07299 | 12.72245 | 34886 ft | 505 kts | 122° |
| 2026-05-05 10:18 | 53.03973 | 12.82564 | 34894 ft | 504 kts | 122° |
| 2026-05-05 10:18 | 53.00671 | 12.92763 | 34898 ft | 502 kts | 122° |
| 2026-05-05 10:19 | 52.97361 | 13.02955 | 34899 ft | 501 kts | 122° |
| 2026-05-05 10:19 | 52.94036 | 13.13091 | 34901 ft | 501 kts | 124° |
| 2026-05-05 10:20 | 52.90433 | 13.22948 | 34901 ft | 501 kts | 126° |
| 2026-05-05 10:20 | 52.86709 | 13.32732 | 34890 ft | 501 kts | 126° |
| 2026-05-05 10:21 | 52.83025 | 13.42523 | 34892 ft | 502 kts | 126° |
| 2026-05-05 10:21 | 52.79349 | 13.52365 | 34905 ft | 503 kts | 126° |
| 2026-05-05 10:22 | 52.75695 | 13.62127 | 34898 ft | 503 kts | 126° |
| 2026-05-05 10:22 | 52.72009 | 13.71927 | 34890 ft | 503 kts | 126° |
| 2026-05-05 10:23 | 52.68305 | 13.81733 | 34895 ft | 502 kts | 126° |
| 2026-05-05 10:23 | 52.64602 | 13.91496 | 34889 ft | 502 kts | 126° |
| 2026-05-05 10:24 | 52.60894 | 14.01243 | 34891 ft | 501 kts | 126° |
| 2026-05-05 10:24 | 52.57157 | 14.10834 | 34892 ft | 500 kts | 127° |
| 2026-05-05 10:25 | 52.53329 | 14.20397 | 34887 ft | 500 kts | 127° |
| 2026-05-05 10:25 | 52.49511 | 14.29932 | 34886 ft | 499 kts | 127° |
| 2026-05-05 10:26 | 52.45701 | 14.39452 | 34884 ft | 499 kts | 127° |
| 2026-05-05 10:26 | 52.41904 | 14.48912 | 34886 ft | 498 kts | 127° |
| 2026-05-05 10:27 | 52.38727 | 14.56799 | 34883 ft | 498 kts | 127° |
| 2026-05-05 10:27 | 52.34896 | 14.66269 | 34886 ft | 498 kts | 127° |
| 2026-05-05 10:28 | 52.30959 | 14.75558 | 34880 ft | 495 kts | 132° |
| 2026-05-05 10:28 | 52.26608 | 14.84290 | 34888 ft | 495 kts | 134° |
| 2026-05-05 10:29 | 52.22196 | 14.92952 | 34879 ft | 497 kts | 133° |
| 2026-05-05 10:29 | 52.17797 | 15.01656 | 34882 ft | 498 kts | 133° |
| 2026-05-05 10:30 | 52.13429 | 15.10349 | 34882 ft | 499 kts | 133° |
| 2026-05-05 10:30 | 52.09032 | 15.19091 | 34885 ft | 499 kts | 133° |
| 2026-05-05 10:31 | 52.04627 | 15.27817 | 34876 ft | 500 kts | 133° |
| 2026-05-05 10:31 | 52.00203 | 15.36546 | 34875 ft | 500 kts | 133° |
| 2026-05-05 10:32 | 51.95775 | 15.45250 | 34874 ft | 500 kts | 133° |
| 2026-05-05 10:32 | 51.91350 | 15.53918 | 34871 ft | 499 kts | 133° |
| 2026-05-05 10:33 | 51.86945 | 15.62518 | 34868 ft | 499 kts | 133° |
| 2026-05-05 10:33 | 51.82504 | 15.71158 | 34863 ft | 498 kts | 133° |
| 2026-05-05 10:34 | 51.78067 | 15.79763 | 34861 ft | 498 kts | 133° |
| 2026-05-05 10:34 | 51.73631 | 15.88337 | 34859 ft | 497 kts | 133° |
| 2026-05-05 10:35 | 51.69189 | 15.96891 | 34856 ft | 496 kts | 133° |
| 2026-05-05 10:35 | 51.64749 | 16.05414 | 34866 ft | 496 kts | 133° |
| 2026-05-05 10:36 | 51.60339 | 16.13853 | 34855 ft | 495 kts | 133° |
| 2026-05-05 10:36 | 51.55874 | 16.22366 | 34853 ft | 494 kts | 133° |
| 2026-05-05 10:37 | 51.51434 | 16.30803 | 34851 ft | 494 kts | 133° |
| 2026-05-05 10:37 | 51.47018 | 16.39169 | 34845 ft | 494 kts | 133° |
| 2026-05-05 10:38 | 51.42559 | 16.47588 | 34841 ft | 494 kts | 133° |
| 2026-05-05 10:38 | 51.38104 | 16.55972 | 34837 ft | 493 kts | 133° |
| 2026-05-05 10:39 | 51.33665 | 16.64299 | 34839 ft | 493 kts | 133° |
| 2026-05-05 10:39 | 51.29210 | 16.72626 | 34835 ft | 493 kts | 133° |
| 2026-05-05 10:40 | 51.24746 | 16.80944 | 34825 ft | 493 kts | 134° |
| 2026-05-05 10:40 | 51.20317 | 16.89172 | 34828 ft | 492 kts | 134° |
| 2026-05-05 10:41 | 51.15841 | 16.97460 | 34827 ft | 492 kts | 134° |
| 2026-05-05 10:41 | 51.11372 | 17.05706 | 34831 ft | 491 kts | 134° |
| 2026-05-05 10:42 | 51.04664 | 17.18034 | 34827 ft | 490 kts | 134° |
| 2026-05-05 10:43 | 51.00194 | 17.26220 | 34834 ft | 490 kts | 134° |
| 2026-05-05 10:43 | 50.95756 | 17.34319 | 34824 ft | 489 kts | 134° |
| 2026-05-05 10:44 | 50.91287 | 17.42446 | 34822 ft | 489 kts | 134° |
| 2026-05-05 10:44 | 50.86804 | 17.50574 | 34824 ft | 488 kts | 134° |
| 2026-05-05 10:45 | 50.82336 | 17.58650 | 34828 ft | 488 kts | 134° |
| 2026-05-05 10:45 | 50.77864 | 17.66710 | 34828 ft | 487 kts | 134° |
| 2026-05-05 10:46 | 50.73401 | 17.74724 | 34834 ft | 487 kts | 134° |
| 2026-05-05 10:46 | 50.68920 | 17.82747 | 34834 ft | 487 kts | 134° |
| 2026-05-05 10:47 | 50.64441 | 17.90743 | 34836 ft | 487 kts | 134° |
| 2026-05-05 10:47 | 50.59949 | 17.98734 | 34842 ft | 487 kts | 134° |
| 2026-05-05 10:48 | 50.55453 | 18.06709 | 34844 ft | 487 kts | 134° |
| 2026-05-05 10:48 | 50.50952 | 18.14667 | 34839 ft | 487 kts | 134° |
| 2026-05-05 10:49 | 50.46439 | 18.22623 | 34845 ft | 487 kts | 135° |
| 2026-05-05 10:49 | 50.41956 | 18.30501 | 34846 ft | 487 kts | 135° |
| 2026-05-05 10:50 | 50.37433 | 18.38424 | 34839 ft | 488 kts | 135° |
| 2026-05-05 10:50 | 50.32887 | 18.46364 | 34844 ft | 488 kts | 135° |
| 2026-05-05 10:51 | 50.28344 | 18.54274 | 34859 ft | 488 kts | 135° |
| 2026-05-05 10:51 | 50.23797 | 18.62167 | 34865 ft | 489 kts | 135° |
| 2026-05-05 10:52 | 50.19239 | 18.70053 | 34844 ft | 489 kts | 135° |
| 2026-05-05 10:52 | 50.14700 | 18.77884 | 34860 ft | 489 kts | 135° |
| 2026-05-05 10:53 | 50.10131 | 18.85742 | 34869 ft | 489 kts | 135° |
| 2026-05-05 10:53 | 50.05549 | 18.93595 | 34871 ft | 489 kts | 135° |
| 2026-05-05 10:54 | 50.00965 | 19.01433 | 34869 ft | 489 kts | 135° |
| 2026-05-05 10:54 | 49.96386 | 19.09235 | 34876 ft | 489 kts | 135° |
| 2026-05-05 10:55 | 49.91789 | 19.17043 | 34878 ft | 489 kts | 135° |
| 2026-05-05 10:55 | 49.87223 | 19.24777 | 34886 ft | 489 kts | 135° |
| 2026-05-05 10:56 | 49.82623 | 19.32544 | 34890 ft | 489 kts | 135° |
| 2026-05-05 10:56 | 49.78019 | 19.40293 | 34895 ft | 489 kts | 135° |
| 2026-05-05 10:57 | 49.73399 | 19.48051 | 34896 ft | 490 kts | 135° |
| 2026-05-05 10:57 | 49.68776 | 19.55786 | 34898 ft | 490 kts | 135° |
| 2026-05-05 10:58 | 49.64139 | 19.63521 | 34909 ft | 490 kts | 135° |
| 2026-05-05 10:58 | 49.59511 | 19.71221 | 34911 ft | 490 kts | 135° |
| 2026-05-05 10:59 | 49.54878 | 19.78905 | 34924 ft | 489 kts | 135° |
| 2026-05-05 10:59 | 49.50243 | 19.86568 | 34927 ft | 488 kts | 135° |
| 2026-05-05 11:00 | 49.45611 | 19.94206 | 34926 ft | 488 kts | 135° |
| 2026-05-05 11:00 | 49.40975 | 20.01825 | 34943 ft | 488 kts | 135° |
| 2026-05-05 11:01 | 49.36339 | 20.09426 | 34953 ft | 489 kts | 135° |
| 2026-05-05 11:01 | 49.31682 | 20.17031 | 34971 ft | 489 kts | 136° |
| 2026-05-05 11:02 | 49.26782 | 20.24282 | 34978 ft | 489 kts | 139° |
| 2026-05-05 11:02 | 49.21820 | 20.31335 | 34984 ft | 490 kts | 140° |
| 2026-05-05 11:03 | 49.16824 | 20.38436 | 34992 ft | 491 kts | 139° |
| 2026-05-05 11:03 | 49.11824 | 20.45573 | 34992 ft | 492 kts | 139° |
| 2026-05-05 11:04 | 49.06820 | 20.52705 | 34987 ft | 492 kts | 139° |
| 2026-05-05 11:04 | 49.01811 | 20.59827 | 34982 ft | 492 kts | 139° |
| 2026-05-05 11:05 | 48.96797 | 20.66930 | 34982 ft | 492 kts | 139° |
| 2026-05-05 11:05 | 48.91780 | 20.74018 | 34982 ft | 492 kts | 139° |
| 2026-05-05 11:06 | 48.86796 | 20.81039 | 34977 ft | 492 kts | 139° |
| 2026-05-05 11:06 | 48.81747 | 20.88128 | 34985 ft | 491 kts | 139° |
| 2026-05-05 11:07 | 48.76740 | 20.95143 | 34997 ft | 492 kts | 139° |
| 2026-05-05 11:07 | 48.71710 | 21.02171 | 34989 ft | 493 kts | 139° |
| 2026-05-05 11:08 | 48.66651 | 21.09213 | 34995 ft | 493 kts | 139° |
| 2026-05-05 11:08 | 48.61626 | 21.16193 | 34996 ft | 493 kts | 139° |
| 2026-05-05 11:09 | 48.56572 | 21.23198 | 34991 ft | 493 kts | 138° |
| 2026-05-05 11:09 | 48.51535 | 21.30247 | 34994 ft | 493 kts | 135° |
| 2026-05-05 11:10 | 48.46866 | 21.37722 | 35004 ft | 492 kts | 133° |
| 2026-05-05 11:10 | 48.42192 | 21.45310 | 34998 ft | 493 kts | 133° |
| 2026-05-05 11:11 | 48.37493 | 21.52881 | 34995 ft | 493 kts | 133° |
| 2026-05-05 11:11 | 48.32821 | 21.60349 | 35003 ft | 493 kts | 134° |
| 2026-05-05 11:12 | 48.28088 | 21.67883 | 34996 ft | 494 kts | 133° |
| 2026-05-05 11:12 | 48.23394 | 21.75335 | 35001 ft | 494 kts | 133° |
| 2026-05-05 11:13 | 48.18674 | 21.82808 | 34995 ft | 494 kts | 133° |
| 2026-05-05 11:13 | 48.14724 | 21.89049 | 34996 ft | 493 kts | 133° |
| 2026-05-05 11:14 | 48.10017 | 21.96464 | 35001 ft | 493 kts | 133° |
| 2026-05-05 11:14 | 48.05290 | 22.03890 | 35000 ft | 493 kts | 133° |
| 2026-05-05 11:15 | 48.00577 | 22.11272 | 34997 ft | 492 kts | 133° |
| 2026-05-05 11:15 | 47.95816 | 22.18708 | 35011 ft | 492 kts | 133° |
| 2026-05-05 11:16 | 47.91117 | 22.26031 | 35006 ft | 491 kts | 133° |
| 2026-05-05 11:16 | 47.86396 | 22.33363 | 35011 ft | 491 kts | 133° |
| 2026-05-05 11:17 | 47.81641 | 22.40734 | 35008 ft | 490 kts | 133° |
| 2026-05-05 11:17 | 47.76869 | 22.47997 | 35014 ft | 490 kts | 135° |
| 2026-05-05 11:18 | 47.71954 | 22.55007 | 35019 ft | 491 kts | 136° |
| 2026-05-05 11:18 | 47.67002 | 22.61970 | 35018 ft | 491 kts | 136° |
| 2026-05-05 11:19 | 47.62045 | 22.68979 | 35024 ft | 492 kts | 135° |
| 2026-05-05 11:19 | 47.57142 | 22.75936 | 35023 ft | 493 kts | 135° |
| 2026-05-05 11:20 | 47.52151 | 22.83010 | 35020 ft | 493 kts | 135° |
| 2026-05-05 11:20 | 47.47218 | 22.89979 | 35018 ft | 494 kts | 135° |
| 2026-05-05 11:21 | 47.42216 | 22.97024 | 35017 ft | 495 kts | 135° |
| 2026-05-05 11:21 | 47.37245 | 23.04007 | 35017 ft | 495 kts | 135° |
| 2026-05-05 11:22 | 47.32257 | 23.10994 | 35015 ft | 495 kts | 135° |
| 2026-05-05 11:22 | 47.27264 | 23.17967 | 35017 ft | 495 kts | 135° |
| 2026-05-05 11:23 | 47.22283 | 23.24905 | 35018 ft | 494 kts | 135° |
| 2026-05-05 11:23 | 47.17267 | 23.31874 | 35022 ft | 494 kts | 135° |
| 2026-05-05 11:24 | 47.12280 | 23.38783 | 35020 ft | 494 kts | 135° |
| 2026-05-05 11:24 | 47.07244 | 23.45741 | 35027 ft | 494 kts | 135° |
| 2026-05-05 11:25 | 47.02269 | 23.52598 | 35035 ft | 494 kts | 135° |
| 2026-05-05 11:25 | 46.97255 | 23.59490 | 35035 ft | 494 kts | 135° |
| 2026-05-05 11:26 | 46.92238 | 23.66364 | 35042 ft | 494 kts | 135° |
| 2026-05-05 11:26 | 46.87202 | 23.73247 | 35048 ft | 493 kts | 135° |
| 2026-05-05 11:27 | 46.82192 | 23.80076 | 35049 ft | 493 kts | 135° |
| 2026-05-05 11:27 | 46.77175 | 23.86897 | 35046 ft | 493 kts | 135° |
| 2026-05-05 11:28 | 46.72154 | 23.93706 | 35041 ft | 493 kts | 135° |
| 2026-05-05 11:28 | 46.67155 | 24.00464 | 35061 ft | 492 kts | 136° |
| 2026-05-05 11:29 | 46.62135 | 24.07237 | 35058 ft | 493 kts | 136° |
| 2026-05-05 11:29 | 46.57098 | 24.14014 | 35058 ft | 493 kts | 136° |
| 2026-05-05 11:30 | 46.52037 | 24.20800 | 35044 ft | 493 kts | 136° |
| 2026-05-05 11:30 | 46.46996 | 24.27546 | 35054 ft | 494 kts | 136° |
| 2026-05-05 11:31 | 46.41945 | 24.34288 | 35052 ft | 494 kts | 136° |
| 2026-05-05 11:31 | 46.36894 | 24.41011 | 35053 ft | 495 kts | 136° |
| 2026-05-05 11:32 | 46.31801 | 24.47772 | 35046 ft | 495 kts | 136° |
| 2026-05-05 11:32 | 46.26750 | 24.54458 | 35042 ft | 495 kts | 136° |
| 2026-05-05 11:33 | 46.21638 | 24.61209 | 35035 ft | 496 kts | 136° |
| 2026-05-05 11:33 | 46.16550 | 24.67911 | 35037 ft | 496 kts | 136° |
| 2026-05-05 11:34 | 46.11443 | 24.74620 | 35027 ft | 496 kts | 136° |
| 2026-05-05 11:34 | 46.06369 | 24.81268 | 35031 ft | 496 kts | 136° |
| 2026-05-05 11:35 | 46.01247 | 24.87961 | 35034 ft | 495 kts | 136° |
| 2026-05-05 11:35 | 45.96138 | 24.94620 | 35036 ft | 496 kts | 136° |
| 2026-05-05 11:36 | 45.91051 | 25.01232 | 35038 ft | 496 kts | 136° |
| 2026-05-05 11:36 | 45.85933 | 25.07869 | 35034 ft | 496 kts | 136° |
| 2026-05-05 11:37 | 45.80793 | 25.14518 | 35047 ft | 495 kts | 136° |
| 2026-05-05 11:37 | 45.75701 | 25.21086 | 35049 ft | 495 kts | 136° |
| 2026-05-05 11:38 | 45.70558 | 25.27701 | 35053 ft | 494 kts | 136° |
| 2026-05-05 11:38 | 45.65440 | 25.34270 | 35049 ft | 495 kts | 136° |
| 2026-05-05 11:39 | 45.60332 | 25.40810 | 35045 ft | 495 kts | 136° |
| 2026-05-05 11:39 | 45.55204 | 25.47357 | 35051 ft | 495 kts | 136° |
| 2026-05-05 11:40 | 45.50025 | 25.53952 | 35054 ft | 495 kts | 136° |
| 2026-05-05 11:40 | 45.44910 | 25.60449 | 35034 ft | 495 kts | 136° |
| 2026-05-05 11:41 | 45.39770 | 25.66961 | 35028 ft | 496 kts | 136° |
| 2026-05-05 11:41 | 45.34598 | 25.73497 | 35056 ft | 495 kts | 136° |
| 2026-05-05 11:42 | 45.29433 | 25.80010 | 35037 ft | 496 kts | 136° |
| 2026-05-05 11:42 | 45.24283 | 25.86486 | 35030 ft | 496 kts | 136° |
| 2026-05-05 11:43 | 45.19105 | 25.92980 | 35036 ft | 496 kts | 136° |
| 2026-05-05 11:43 | 45.13943 | 25.99437 | 35034 ft | 496 kts | 136° |
| 2026-05-05 11:44 | 45.08762 | 26.05904 | 35033 ft | 496 kts | 136° |
| 2026-05-05 11:44 | 45.03603 | 26.12326 | 35034 ft | 496 kts | 136° |
| 2026-05-05 11:45 | 44.98413 | 26.18769 | 35039 ft | 496 kts | 136° |
| 2026-05-05 11:45 | 44.93233 | 26.25186 | 35035 ft | 495 kts | 137° |
| 2026-05-05 11:46 | 44.88048 | 26.31592 | 35037 ft | 495 kts | 137° |
| 2026-05-05 11:46 | 44.82883 | 26.37958 | 35036 ft | 495 kts | 137° |
| 2026-05-05 11:47 | 44.77682 | 26.44350 | 35036 ft | 495 kts | 137° |
| 2026-05-05 11:47 | 44.72487 | 26.50722 | 35039 ft | 495 kts | 137° |
| 2026-05-05 11:48 | 44.64729 | 26.60208 | 35032 ft | 495 kts | 137° |
| 2026-05-05 11:48 | 44.59539 | 26.66532 | 35038 ft | 494 kts | 137° |
| 2026-05-05 11:49 | 44.54323 | 26.72873 | 35043 ft | 494 kts | 137° |
| 2026-05-05 11:49 | 44.49149 | 26.79149 | 35043 ft | 494 kts | 137° |
| 2026-05-05 11:50 | 44.43960 | 26.85427 | 35044 ft | 494 kts | 137° |
| 2026-05-05 11:50 | 44.38757 | 26.91707 | 35040 ft | 494 kts | 137° |
| 2026-05-05 11:51 | 44.33540 | 26.97988 | 35043 ft | 493 kts | 137° |
| 2026-05-05 11:51 | 44.28347 | 27.04225 | 35046 ft | 492 kts | 137° |
| 2026-05-05 11:52 | 44.23170 | 27.10427 | 35048 ft | 491 kts | 138° |
| 2026-05-05 11:52 | 44.17986 | 27.16624 | 35044 ft | 491 kts | 138° |
| 2026-05-05 11:53 | 44.12819 | 27.22786 | 35054 ft | 490 kts | 138° |
| 2026-05-05 11:53 | 44.07643 | 27.28943 | 35049 ft | 489 kts | 138° |
| 2026-05-05 11:54 | 44.02458 | 27.35097 | 35046 ft | 488 kts | 138° |
| 2026-05-05 11:54 | 43.97281 | 27.41224 | 35046 ft | 488 kts | 138° |
| 2026-05-05 11:55 | 43.92122 | 27.47317 | 35045 ft | 487 kts | 138° |
| 2026-05-05 11:55 | 43.86968 | 27.53392 | 35043 ft | 486 kts | 138° |
| 2026-05-05 11:56 | 43.81816 | 27.59449 | 35053 ft | 486 kts | 139° |
| 2026-05-05 11:56 | 43.76698 | 27.65453 | 35049 ft | 485 kts | 139° |
| 2026-05-05 11:57 | 43.71526 | 27.71504 | 35056 ft | 485 kts | 139° |
| 2026-05-05 11:57 | 43.66371 | 27.77526 | 35051 ft | 485 kts | 139° |
| 2026-05-05 11:58 | 43.61237 | 27.83537 | 35060 ft | 484 kts | 137° |
| 2026-05-05 11:58 | 43.56573 | 27.90123 | 35072 ft | 482 kts | 131° |
| 2026-05-05 11:59 | 43.52020 | 27.96927 | 35075 ft | 483 kts | 131° |
| 2026-05-05 11:59 | 43.47446 | 28.03715 | 35077 ft | 483 kts | 131° |
| 2026-05-05 12:00 | 43.42851 | 28.10475 | 35079 ft | 483 kts | 132° |
| 2026-05-05 12:00 | 43.38247 | 28.17215 | 35072 ft | 483 kts | 132° |
| 2026-05-05 12:01 | 43.34412 | 28.22816 | 35078 ft | 483 kts | 132° |
| 2026-05-05 12:01 | 43.29802 | 28.29533 | 35079 ft | 483 kts | 132° |
| 2026-05-05 12:02 | 43.25186 | 28.36247 | 35078 ft | 484 kts | 132° |
| 2026-05-05 12:02 | 43.20560 | 28.42959 | 35086 ft | 484 kts | 132° |
| 2026-05-05 12:03 | 43.15944 | 28.49641 | 35092 ft | 484 kts | 132° |
| 2026-05-05 12:03 | 43.11306 | 28.56340 | 35088 ft | 485 kts | 132° |
| 2026-05-05 12:04 | 43.06669 | 28.63021 | 35088 ft | 485 kts | 132° |
| 2026-05-05 12:04 | 43.02012 | 28.69715 | 35072 ft | 485 kts | 132° |
| 2026-05-05 12:05 | 42.97376 | 28.76363 | 35092 ft | 485 kts | 132° |
| 2026-05-05 12:05 | 42.92699 | 28.83054 | 35098 ft | 485 kts | 132° |
| 2026-05-05 12:06 | 42.88042 | 28.89702 | 35095 ft | 486 kts | 132° |
| 2026-05-05 12:06 | 42.83389 | 28.96327 | 35084 ft | 486 kts | 132° |
| 2026-05-05 12:07 | 42.78697 | 29.02993 | 35080 ft | 486 kts | 132° |
| 2026-05-05 12:07 | 42.74014 | 29.09631 | 35084 ft | 486 kts | 132° |
| 2026-05-05 12:08 | 42.69320 | 29.16268 | 35085 ft | 486 kts | 132° |
| 2026-05-05 12:08 | 42.64612 | 29.22911 | 35087 ft | 487 kts | 132° |
| 2026-05-05 12:09 | 42.59926 | 29.29507 | 35083 ft | 487 kts | 132° |
| 2026-05-05 12:09 | 42.55208 | 29.36132 | 35083 ft | 488 kts | 133° |
| 2026-05-05 12:10 | 42.50486 | 29.42749 | 35081 ft | 488 kts | 133° |
| 2026-05-05 12:10 | 42.45784 | 29.49323 | 35079 ft | 489 kts | 133° |
| 2026-05-05 12:11 | 42.41041 | 29.55941 | 35075 ft | 489 kts | 133° |
| 2026-05-05 12:11 | 42.36822 | 29.63123 | 35073 ft | 486 kts | 119° |
| 2026-05-05 12:12 | 42.34002 | 29.71329 | 35075 ft | 483 kts | 107° |
| 2026-05-05 12:12 | 42.31876 | 29.79929 | 35080 ft | 484 kts | 106° |
| 2026-05-05 12:13 | 42.29734 | 29.88603 | 35070 ft | 485 kts | 107° |
| 2026-05-05 12:13 | 42.27569 | 29.97172 | 35065 ft | 485 kts | 107° |
| 2026-05-05 12:14 | 42.25358 | 30.05805 | 35071 ft | 486 kts | 107° |
| 2026-05-05 12:14 | 42.23135 | 30.14442 | 35069 ft | 486 kts | 107° |
| 2026-05-05 12:15 | 42.20925 | 30.23006 | 35064 ft | 486 kts | 107° |
| 2026-05-05 12:15 | 42.18696 | 30.31617 | 35064 ft | 487 kts | 107° |
| 2026-05-05 12:16 | 42.16455 | 30.40244 | 35068 ft | 487 kts | 107° |
| 2026-05-05 12:16 | 42.14203 | 30.48885 | 35410 ft | 489 kts | 107° |
| 2026-05-05 12:17 | 42.13065 | 30.53235 | 35723 ft | 488 kts | 107° |
| 2026-05-05 12:17 | 42.11942 | 30.57521 | 36041 ft | 487 kts | 107° |
| 2026-05-05 12:17 | 42.10822 | 30.61790 | 36317 ft | 487 kts | 107° |
| 2026-05-05 12:17 | 42.09691 | 30.66094 | 36564 ft | 487 kts | 107° |
| 2026-05-05 12:18 | 42.08558 | 30.70400 | 36812 ft | 488 kts | 107° |
| 2026-05-05 12:18 | 42.07420 | 30.74716 | 36972 ft | 489 kts | 107° |
| 2026-05-05 12:18 | 42.05142 | 30.83333 | 37042 ft | 490 kts | 107° |
| 2026-05-05 12:19 | 42.02854 | 30.91952 | 37041 ft | 488 kts | 107° |
| 2026-05-05 12:19 | 42.00565 | 31.00555 | 37045 ft | 486 kts | 107° |
| 2026-05-05 12:20 | 41.98284 | 31.09069 | 37044 ft | 485 kts | 107° |
| 2026-05-05 12:20 | 41.95982 | 31.17615 | 37045 ft | 485 kts | 107° |
| 2026-05-05 12:21 | 41.93693 | 31.26092 | 37036 ft | 486 kts | 107° |
| 2026-05-05 12:21 | 41.91378 | 31.34638 | 37035 ft | 487 kts | 107° |
| 2026-05-05 12:22 | 41.89045 | 31.43222 | 37044 ft | 488 kts | 107° |
| 2026-05-05 12:22 | 41.86712 | 31.51777 | 37039 ft | 489 kts | 107° |
| 2026-05-05 12:23 | 41.84367 | 31.60351 | 37035 ft | 490 kts | 107° |
| 2026-05-05 12:23 | 41.82032 | 31.68893 | 37031 ft | 491 kts | 107° |
| 2026-05-05 12:24 | 41.79707 | 31.77538 | 37030 ft | 492 kts | 107° |
| 2026-05-05 12:24 | 41.77331 | 31.86098 | 37033 ft | 492 kts | 107° |
| 2026-05-05 12:25 | 41.74917 | 31.94727 | 37041 ft | 492 kts | 107° |
| 2026-05-05 12:25 | 41.72529 | 32.03278 | 37031 ft | 493 kts | 107° |
| 2026-05-05 12:26 | 41.70123 | 32.11879 | 37033 ft | 493 kts | 107° |
| 2026-05-05 12:26 | 41.67704 | 32.20462 | 37038 ft | 493 kts | 108° |
| 2026-05-05 12:27 | 41.65291 | 32.29057 | 37034 ft | 493 kts | 107° |
| 2026-05-05 12:27 | 41.62903 | 32.37641 | 37042 ft | 494 kts | 108° |
| 2026-05-05 12:28 | 41.60473 | 32.46247 | 37027 ft | 494 kts | 108° |
| 2026-05-05 12:28 | 41.58058 | 32.54776 | 37027 ft | 494 kts | 108° |
| 2026-05-05 12:29 | 41.55607 | 32.63382 | 37025 ft | 494 kts | 108° |
| 2026-05-05 12:29 | 41.53161 | 32.71942 | 37029 ft | 495 kts | 108° |
| 2026-05-05 12:30 | 41.50701 | 32.80535 | 37027 ft | 494 kts | 108° |
| 2026-05-05 12:30 | 41.48241 | 32.89100 | 37025 ft | 494 kts | 108° |
| 2026-05-05 12:31 | 41.45770 | 32.97647 | 37018 ft | 494 kts | 110° |
| 2026-05-05 12:31 | 41.42698 | 33.05840 | 37020 ft | 497 kts | 117° |
| 2026-05-05 12:32 | 41.39267 | 33.13898 | 37009 ft | 497 kts | 117° |
| 2026-05-05 12:32 | 41.35918 | 33.21913 | 36996 ft | 497 kts | 117° |
| 2026-05-05 12:33 | 41.32636 | 33.29984 | 36993 ft | 497 kts | 116° |
| 2026-05-05 12:33 | 41.29405 | 33.38093 | 36987 ft | 497 kts | 116° |
| 2026-05-05 12:34 | 41.26168 | 33.46224 | 36982 ft | 497 kts | 116° |
| 2026-05-05 12:34 | 41.22948 | 33.54371 | 36969 ft | 497 kts | 116° |
| 2026-05-05 12:35 | 41.19724 | 33.62508 | 36977 ft | 497 kts | 116° |
| 2026-05-05 12:35 | 41.16504 | 33.70602 | 36965 ft | 498 kts | 116° |
| 2026-05-05 12:36 | 41.13254 | 33.78742 | 36963 ft | 498 kts | 116° |
| 2026-05-05 12:36 | 41.10025 | 33.86804 | 36966 ft | 497 kts | 116° |
| 2026-05-05 12:37 | 41.06776 | 33.94900 | 36953 ft | 497 kts | 116° |
| 2026-05-05 12:37 | 41.03532 | 34.02959 | 36953 ft | 496 kts | 116° |
| 2026-05-05 12:38 | 41.00270 | 34.11039 | 36941 ft | 496 kts | 117° |
| 2026-05-05 12:38 | 40.97020 | 34.19070 | 36951 ft | 496 kts | 117° |
| 2026-05-05 12:39 | 40.93756 | 34.27114 | 36945 ft | 496 kts | 117° |
| 2026-05-05 12:39 | 40.90487 | 34.35148 | 36942 ft | 496 kts | 117° |
| 2026-05-05 12:40 | 40.87208 | 34.43185 | 36940 ft | 495 kts | 117° |
| 2026-05-05 12:40 | 40.83939 | 34.51178 | 36941 ft | 495 kts | 117° |
| 2026-05-05 12:41 | 40.80657 | 34.59181 | 36938 ft | 495 kts | 117° |
| 2026-05-05 12:41 | 40.77386 | 34.67141 | 36939 ft | 495 kts | 117° |
| 2026-05-05 12:42 | 40.74345 | 34.75260 | 36940 ft | 494 kts | 111° |
| 2026-05-05 12:42 | 40.72293 | 34.83883 | 36939 ft | 493 kts | 105° |
| 2026-05-05 12:43 | 40.70423 | 34.92605 | 36933 ft | 493 kts | 105° |
| 2026-05-05 12:43 | 40.68535 | 35.01265 | 36931 ft | 494 kts | 105° |
| 2026-05-05 12:44 | 40.66597 | 35.09990 | 36933 ft | 494 kts | 105° |
| 2026-05-05 12:44 | 40.64651 | 35.18669 | 36936 ft | 495 kts | 106° |
| 2026-05-05 12:45 | 40.62706 | 35.27308 | 36938 ft | 495 kts | 106° |
| 2026-05-05 12:45 | 40.60738 | 35.36024 | 36938 ft | 495 kts | 106° |
| 2026-05-05 12:46 | 40.58769 | 35.44718 | 36935 ft | 495 kts | 106° |
| 2026-05-05 12:46 | 40.56799 | 35.53381 | 36928 ft | 495 kts | 106° |
| 2026-05-05 12:47 | 40.54825 | 35.62023 | 36937 ft | 495 kts | 107° |
| 2026-05-05 12:47 | 40.53172 | 35.69236 | 36942 ft | 494 kts | 107° |
| 2026-05-05 12:48 | 40.51180 | 35.77903 | 36937 ft | 494 kts | 107° |
| 2026-05-05 12:48 | 40.49194 | 35.86504 | 36942 ft | 494 kts | 107° |
| 2026-05-05 12:49 | 40.47199 | 35.95114 | 36954 ft | 493 kts | 107° |
| 2026-05-05 12:49 | 40.45187 | 36.03764 | 36954 ft | 493 kts | 107° |
| 2026-05-05 12:50 | 40.43189 | 36.12323 | 36944 ft | 492 kts | 107° |
| 2026-05-05 12:50 | 40.41167 | 36.20951 | 36948 ft | 493 kts | 108° |
| 2026-05-05 12:51 | 40.39160 | 36.29484 | 36935 ft | 492 kts | 108° |
| 2026-05-05 12:51 | 40.37138 | 36.38048 | 36943 ft | 492 kts | 108° |
| 2026-05-05 12:52 | 40.35107 | 36.46620 | 36939 ft | 492 kts | 108° |
| 2026-05-05 12:52 | 40.33077 | 36.55153 | 36941 ft | 492 kts | 108° |
| 2026-05-05 12:53 | 40.31025 | 36.63751 | 36943 ft | 491 kts | 108° |
| 2026-05-05 12:53 | 40.28982 | 36.72274 | 36957 ft | 491 kts | 108° |
| 2026-05-05 12:54 | 40.25907 | 36.85046 | 36964 ft | 491 kts | 109° |
| 2026-05-05 12:55 | 40.23855 | 36.93533 | 36962 ft | 491 kts | 109° |
| 2026-05-05 12:55 | 40.21778 | 37.02093 | 36957 ft | 491 kts | 109° |
| 2026-05-05 12:56 | 40.19711 | 37.10577 | 36962 ft | 491 kts | 109° |
| 2026-05-05 12:56 | 40.17632 | 37.19081 | 36945 ft | 491 kts | 109° |
| 2026-05-05 12:57 | 40.15544 | 37.27596 | 36959 ft | 491 kts | 109° |
| 2026-05-05 12:57 | 40.13453 | 37.36089 | 36943 ft | 491 kts | 109° |
| 2026-05-05 12:58 | 40.11372 | 37.44511 | 36938 ft | 490 kts | 109° |
| 2026-05-05 12:58 | 40.09263 | 37.53020 | 36941 ft | 489 kts | 110° |
| 2026-05-05 12:59 | 40.07108 | 37.61444 | 36930 ft | 488 kts | 112° |
| 2026-05-05 12:59 | 40.04698 | 37.69667 | 36931 ft | 487 kts | 113° |
| 2026-05-05 13:00 | 40.00995 | 37.82017 | 36924 ft | 487 kts | 113° |
| 2026-05-05 13:01 | 39.96141 | 37.98491 | 36922 ft | 488 kts | 113° |
| 2026-05-05 13:01 | 39.93700 | 38.06773 | 36911 ft | 488 kts | 113° |
| 2026-05-05 13:02 | 39.91263 | 38.15006 | 36899 ft | 488 kts | 114° |
| 2026-05-05 13:02 | 39.88808 | 38.23272 | 36901 ft | 488 kts | 114° |
| 2026-05-05 13:03 | 39.86354 | 38.31507 | 36899 ft | 488 kts | 114° |
| 2026-05-05 13:03 | 39.83893 | 38.39737 | 36884 ft | 488 kts | 114° |
| 2026-05-05 13:04 | 39.81418 | 38.47990 | 36894 ft | 488 kts | 114° |
| 2026-05-05 13:04 | 39.78954 | 38.56184 | 36882 ft | 488 kts | 114° |
| 2026-05-05 13:05 | 39.76472 | 38.64411 | 36891 ft | 488 kts | 114° |
| 2026-05-05 13:05 | 39.73987 | 38.72621 | 36879 ft | 488 kts | 114° |
| 2026-05-05 13:06 | 39.71493 | 38.80842 | 36879 ft | 488 kts | 114° |
| 2026-05-05 13:06 | 39.68996 | 38.89040 | 36889 ft | 488 kts | 115° |
| 2026-05-05 13:07 | 39.66493 | 38.97237 | 36894 ft | 489 kts | 115° |
| 2026-05-05 13:07 | 39.63997 | 39.05389 | 36901 ft | 489 kts | 115° |
| 2026-05-05 13:08 | 39.61476 | 39.13595 | 36902 ft | 490 kts | 115° |
| 2026-05-05 13:08 | 39.58943 | 39.21813 | 36899 ft | 491 kts | 115° |
| 2026-05-05 13:09 | 39.56399 | 39.30046 | 36913 ft | 492 kts | 115° |
| 2026-05-05 13:09 | 39.53846 | 39.38286 | 36900 ft | 492 kts | 115° |
| 2026-05-05 13:10 | 39.51302 | 39.46487 | 36893 ft | 492 kts | 114° |
| 2026-05-05 13:10 | 39.49081 | 39.54815 | 36901 ft | 494 kts | 111° |
| 2026-05-05 13:11 | 39.46946 | 39.63280 | 36927 ft | 494 kts | 111° |
| 2026-05-05 13:11 | 39.44783 | 39.71762 | 36918 ft | 494 kts | 112° |
| 2026-05-05 13:12 | 39.42614 | 39.80160 | 36918 ft | 494 kts | 112° |
| 2026-05-05 13:12 | 39.40416 | 39.88625 | 36922 ft | 494 kts | 112° |
| 2026-05-05 13:13 | 39.38230 | 39.97016 | 36909 ft | 494 kts | 112° |
| 2026-05-05 13:13 | 39.36039 | 40.05403 | 36908 ft | 494 kts | 112° |
| 2026-05-05 13:14 | 39.33834 | 40.13822 | 36917 ft | 494 kts | 112° |
| 2026-05-05 13:14 | 39.31628 | 40.22235 | 36921 ft | 495 kts | 112° |
| 2026-05-05 13:15 | 39.29448 | 40.30664 | 36918 ft | 495 kts | 112° |
| 2026-05-05 13:15 | 39.27270 | 40.39099 | 36921 ft | 495 kts | 112° |
| 2026-05-05 13:16 | 39.25095 | 40.47491 | 36928 ft | 495 kts | 112° |
| 2026-05-05 13:16 | 39.22889 | 40.55951 | 36937 ft | 495 kts | 112° |
| 2026-05-05 13:17 | 39.20700 | 40.64316 | 36942 ft | 495 kts | 112° |
| 2026-05-05 13:17 | 39.18482 | 40.72762 | 36932 ft | 497 kts | 112° |
| 2026-05-05 13:18 | 39.16274 | 40.81146 | 36944 ft | 496 kts | 112° |
| 2026-05-05 13:18 | 39.14044 | 40.89586 | 36940 ft | 496 kts | 112° |
| 2026-05-05 13:19 | 39.11809 | 40.98014 | 36939 ft | 496 kts | 112° |
| 2026-05-05 13:19 | 39.09586 | 41.06368 | 36927 ft | 495 kts | 113° |
| 2026-05-05 13:20 | 39.07343 | 41.14767 | 36944 ft | 495 kts | 113° |
| 2026-05-05 13:20 | 39.05097 | 41.23154 | 36922 ft | 496 kts | 113° |
| 2026-05-05 13:21 | 39.02839 | 41.31558 | 36922 ft | 496 kts | 113° |
| 2026-05-05 13:21 | 39.00578 | 41.39941 | 36918 ft | 497 kts | 113° |
| 2026-05-05 13:22 | 38.98311 | 41.48322 | 36915 ft | 497 kts | 113° |
| 2026-05-05 13:22 | 38.96041 | 41.56688 | 36919 ft | 497 kts | 114° |
| 2026-05-05 13:23 | 38.93756 | 41.65080 | 36924 ft | 497 kts | 114° |
| 2026-05-05 13:23 | 38.91460 | 41.73485 | 36925 ft | 497 kts | 114° |
| 2026-05-05 13:24 | 38.89167 | 41.81853 | 36912 ft | 497 kts | 114° |
| 2026-05-05 13:24 | 38.86870 | 41.90207 | 36911 ft | 496 kts | 114° |
| 2026-05-05 13:25 | 38.84576 | 41.98523 | 36913 ft | 496 kts | 114° |
| 2026-05-05 13:25 | 38.82261 | 42.06887 | 36910 ft | 496 kts | 114° |
| 2026-05-05 13:26 | 38.79944 | 42.15231 | 36908 ft | 497 kts | 114° |
| 2026-05-05 13:26 | 38.77633 | 42.23529 | 36906 ft | 497 kts | 115° |
| 2026-05-05 13:27 | 38.75301 | 42.31875 | 36915 ft | 497 kts | 115° |
| 2026-05-05 13:27 | 38.72956 | 42.40240 | 36910 ft | 498 kts | 115° |
| 2026-05-05 13:28 | 38.70617 | 42.48558 | 36916 ft | 498 kts | 115° |
| 2026-05-05 13:28 | 38.68262 | 42.56906 | 36916 ft | 499 kts | 115° |
| 2026-05-05 13:29 | 38.65895 | 42.65271 | 36918 ft | 499 kts | 115° |
| 2026-05-05 13:29 | 38.63517 | 42.73649 | 36912 ft | 500 kts | 115° |
| 2026-05-05 13:30 | 38.61148 | 42.81967 | 36905 ft | 500 kts | 116° |
| 2026-05-05 13:30 | 38.58756 | 42.90339 | 36909 ft | 501 kts | 116° |
| 2026-05-05 13:31 | 38.56369 | 42.98670 | 36910 ft | 501 kts | 116° |
| 2026-05-05 13:31 | 38.53964 | 43.07036 | 36918 ft | 501 kts | 116° |
| 2026-05-05 13:32 | 38.51551 | 43.15405 | 36926 ft | 501 kts | 116° |
| 2026-05-05 13:32 | 38.49139 | 43.23750 | 36932 ft | 502 kts | 116° |
| 2026-05-05 13:33 | 38.46682 | 43.32056 | 36943 ft | 499 kts | 120° |
| 2026-05-05 13:33 | 38.43511 | 43.39860 | 36940 ft | 492 kts | 126° |
| 2026-05-05 13:34 | 38.40137 | 43.47430 | 36937 ft | 493 kts | 126° |
| 2026-05-05 13:34 | 38.36775 | 43.55058 | 36923 ft | 494 kts | 126° |
| 2026-05-05 13:35 | 38.33991 | 43.61428 | 36925 ft | 492 kts | 126° |
| 2026-05-05 13:35 | 38.30680 | 43.69002 | 36908 ft | 493 kts | 126° |
| 2026-05-05 13:36 | 38.27332 | 43.76633 | 36917 ft | 492 kts | 126° |
| 2026-05-05 13:36 | 38.24050 | 43.84281 | 36915 ft | 494 kts | 125° |
| 2026-05-05 13:37 | 38.20855 | 43.92001 | 36906 ft | 494 kts | 125° |
| 2026-05-05 13:37 | 38.17636 | 43.99749 | 36889 ft | 493 kts | 125° |
| 2026-05-05 13:38 | 38.14423 | 44.07412 | 36901 ft | 493 kts | 126° |
| 2026-05-05 13:38 | 38.11201 | 44.15068 | 36902 ft | 493 kts | 126° |
| 2026-05-05 13:39 | 38.07966 | 44.22742 | 36897 ft | 493 kts | 126° |
| 2026-05-05 13:39 | 38.04712 | 44.30476 | 36898 ft | 496 kts | 124° |
| 2026-05-05 13:40 | 38.01767 | 44.38346 | 36874 ft | 497 kts | 122° |
| 2026-05-05 13:40 | 37.98871 | 44.46316 | 36898 ft | 497 kts | 122° |
| 2026-05-05 13:41 | 37.95941 | 44.54296 | 36878 ft | 498 kts | 122° |
| 2026-05-05 13:41 | 37.93010 | 44.62202 | 36868 ft | 498 kts | 123° |
| 2026-05-05 13:42 | 37.90057 | 44.70146 | 36872 ft | 499 kts | 123° |
| 2026-05-05 13:42 | 37.87090 | 44.78110 | 36869 ft | 499 kts | 123° |
| 2026-05-05 13:43 | 37.84131 | 44.86035 | 36880 ft | 499 kts | 123° |
| 2026-05-05 13:43 | 37.81154 | 44.93990 | 36891 ft | 501 kts | 123° |
| 2026-05-05 13:44 | 37.78163 | 45.01961 | 36897 ft | 502 kts | 123° |
| 2026-05-05 13:44 | 37.75166 | 45.09930 | 36886 ft | 503 kts | 124° |
| 2026-05-05 13:45 | 37.72157 | 45.17915 | 36891 ft | 504 kts | 124° |
| 2026-05-05 13:45 | 37.69138 | 45.25900 | 36885 ft | 505 kts | 124° |
| 2026-05-05 13:46 | 37.66120 | 45.33865 | 36874 ft | 505 kts | 124° |
| 2026-05-05 13:46 | 37.63081 | 45.41864 | 36854 ft | 506 kts | 124° |
| 2026-05-05 13:47 | 37.60020 | 45.49901 | 36822 ft | 506 kts | 124° |
| 2026-05-05 13:47 | 37.56963 | 45.57911 | 36812 ft | 507 kts | 124° |
| 2026-05-05 13:48 | 37.53746 | 45.65682 | 36812 ft | 494 kts | 134° |
| 2026-05-05 13:48 | 37.51609 | 45.68978 | 36821 ft | 481 kts | 143° |
| 2026-05-05 13:48 | 37.49184 | 45.71803 | 36816 ft | 471 kts | 150° |
| 2026-05-05 13:49 | 37.46527 | 45.74091 | 36824 ft | 459 kts | 159° |
| 2026-05-05 13:49 | 37.43752 | 45.76135 | 36827 ft | 459 kts | 159° |
| 2026-05-05 13:49 | 37.38218 | 45.80207 | 36836 ft | 461 kts | 159° |
| 2026-05-05 13:50 | 37.32725 | 45.84340 | 36847 ft | 463 kts | 158° |
| 2026-05-05 13:50 | 37.27202 | 45.88519 | 36847 ft | 464 kts | 158° |
| 2026-05-05 13:51 | 37.21706 | 45.92939 | 36847 ft | 468 kts | 155° |
| 2026-05-05 13:51 | 37.16334 | 45.97559 | 36847 ft | 468 kts | 155° |
| 2026-05-05 13:52 | 37.10967 | 46.02151 | 36848 ft | 467 kts | 155° |
| 2026-05-05 13:52 | 37.05585 | 46.06693 | 36839 ft | 467 kts | 156° |
| 2026-05-05 13:53 | 37.00191 | 46.11217 | 36835 ft | 466 kts | 156° |
| 2026-05-05 13:53 | 36.94797 | 46.15732 | 36832 ft | 466 kts | 156° |
| 2026-05-05 13:54 | 36.89407 | 46.20236 | 36848 ft | 466 kts | 156° |
| 2026-05-05 13:54 | 36.84012 | 46.24739 | 36846 ft | 467 kts | 156° |
| 2026-05-05 13:55 | 36.78637 | 46.29218 | 36851 ft | 468 kts | 156° |
| 2026-05-05 13:55 | 36.73218 | 46.33726 | 36858 ft | 469 kts | 156° |
| 2026-05-05 13:56 | 36.67784 | 46.38239 | 36866 ft | 470 kts | 156° |
| 2026-05-05 13:56 | 36.62341 | 46.42752 | 36858 ft | 470 kts | 156° |
| 2026-05-05 13:57 | 36.56881 | 46.47273 | 36862 ft | 471 kts | 156° |
| 2026-05-05 13:57 | 36.51409 | 46.51795 | 36861 ft | 472 kts | 156° |
| 2026-05-05 13:58 | 36.45977 | 46.56274 | 36870 ft | 472 kts | 156° |
| 2026-05-05 13:58 | 36.40483 | 46.60794 | 36871 ft | 473 kts | 156° |
| 2026-05-05 13:59 | 36.32231 | 46.67577 | 36880 ft | 474 kts | 156° |
| 2026-05-05 14:00 | 36.24898 | 46.73590 | 36882 ft | 475 kts | 156° |
| 2026-05-05 14:00 | 36.18494 | 46.78829 | 36888 ft | 475 kts | 156° |
| 2026-05-05 14:01 | 36.12972 | 46.83341 | 36880 ft | 475 kts | 156° |
| 2026-05-05 14:01 | 36.07454 | 46.87837 | 36882 ft | 475 kts | 156° |
| 2026-05-05 14:02 | 36.01926 | 46.92313 | 36879 ft | 475 kts | 156° |
| 2026-05-05 14:02 | 35.96400 | 46.96775 | 36883 ft | 475 kts | 156° |
| 2026-05-05 14:03 | 35.90834 | 47.01264 | 36877 ft | 477 kts | 156° |
| 2026-05-05 14:03 | 35.85286 | 47.05736 | 36877 ft | 478 kts | 156° |
| 2026-05-05 14:04 | 35.79707 | 47.10225 | 36879 ft | 480 kts | 156° |
| 2026-05-05 14:04 | 35.74122 | 47.14712 | 36878 ft | 482 kts | 156° |
| 2026-05-05 14:05 | 35.68494 | 47.19223 | 36876 ft | 482 kts | 156° |
| 2026-05-05 14:05 | 35.62871 | 47.23727 | 36873 ft | 482 kts | 156° |
| 2026-05-05 14:06 | 35.57254 | 47.28216 | 36867 ft | 481 kts | 156° |
| 2026-05-05 14:06 | 35.51670 | 47.32672 | 36868 ft | 479 kts | 156° |
| 2026-05-05 14:07 | 35.46062 | 47.37138 | 36879 ft | 479 kts | 156° |
| 2026-05-05 14:07 | 35.40503 | 47.41556 | 36881 ft | 478 kts | 156° |
| 2026-05-05 14:08 | 35.34922 | 47.45988 | 36879 ft | 477 kts | 156° |
| 2026-05-05 14:08 | 35.29343 | 47.50408 | 36880 ft | 477 kts | 156° |
| 2026-05-05 14:09 | 35.23778 | 47.54810 | 36885 ft | 477 kts | 156° |
| 2026-05-05 14:09 | 35.18211 | 47.59208 | 36893 ft | 477 kts | 156° |
| 2026-05-05 14:10 | 35.12656 | 47.63589 | 36896 ft | 478 kts | 156° |
| 2026-05-05 14:10 | 35.07064 | 47.67992 | 36910 ft | 480 kts | 156° |
| 2026-05-05 14:11 | 35.01411 | 47.72467 | 36884 ft | 482 kts | 156° |
| 2026-05-05 14:11 | 34.95831 | 47.76895 | 36889 ft | 481 kts | 156° |
| 2026-05-05 14:12 | 34.90216 | 47.81342 | 36896 ft | 481 kts | 156° |
| 2026-05-05 14:12 | 34.84603 | 47.85777 | 36906 ft | 480 kts | 156° |
| 2026-05-05 14:13 | 34.78991 | 47.90202 | 36885 ft | 479 kts | 156° |
| 2026-05-05 14:13 | 34.73390 | 47.94609 | 36876 ft | 479 kts | 157° |
| 2026-05-05 14:14 | 34.67794 | 47.99006 | 36875 ft | 479 kts | 156° |
| 2026-05-05 14:14 | 34.62239 | 48.03364 | 36874 ft | 478 kts | 157° |
| 2026-05-05 14:15 | 34.56637 | 48.07751 | 36875 ft | 479 kts | 157° |
| 2026-05-05 14:15 | 34.51019 | 48.12143 | 36879 ft | 480 kts | 157° |
| 2026-05-05 14:16 | 34.45400 | 48.16529 | 36879 ft | 482 kts | 157° |
| 2026-05-05 14:16 | 34.39734 | 48.20944 | 36886 ft | 483 kts | 157° |
| 2026-05-05 14:17 | 34.34074 | 48.25349 | 36887 ft | 484 kts | 156° |
| 2026-05-05 14:17 | 34.28423 | 48.29740 | 36901 ft | 485 kts | 156° |
| 2026-05-05 14:18 | 34.22748 | 48.34142 | 36899 ft | 486 kts | 156° |
| 2026-05-05 14:18 | 34.17040 | 48.38564 | 36894 ft | 485 kts | 156° |
| 2026-05-05 14:19 | 34.11380 | 48.42941 | 36899 ft | 484 kts | 156° |
| 2026-05-05 14:19 | 34.05734 | 48.47299 | 36904 ft | 484 kts | 156° |
| 2026-05-05 14:20 | 34.00045 | 48.51682 | 36903 ft | 484 kts | 156° |
| 2026-05-05 14:20 | 33.94364 | 48.56049 | 36917 ft | 488 kts | 156° |
| 2026-05-05 14:21 | 33.88599 | 48.60474 | 36907 ft | 492 kts | 156° |
| 2026-05-05 14:21 | 33.82837 | 48.64894 | 36925 ft | 494 kts | 156° |
| 2026-05-05 14:22 | 33.77031 | 48.69345 | 36919 ft | 493 kts | 156° |
| 2026-05-05 14:22 | 33.71271 | 48.73748 | 36927 ft | 493 kts | 156° |
| 2026-05-05 14:23 | 33.65473 | 48.78179 | 36911 ft | 491 kts | 156° |
| 2026-05-05 14:23 | 33.60666 | 48.81842 | 36893 ft | 489 kts | 157° |
| 2026-05-05 14:24 | 33.54020 | 48.86898 | 36910 ft | 486 kts | 157° |
| 2026-05-05 14:24 | 33.49253 | 48.90518 | 36920 ft | 484 kts | 157° |
| 2026-05-05 14:25 | 33.43544 | 48.94848 | 36911 ft | 484 kts | 157° |
| 2026-05-05 14:25 | 33.37875 | 48.99141 | 36942 ft | 483 kts | 157° |
| 2026-05-05 14:26 | 33.32196 | 49.03436 | 36943 ft | 481 kts | 157° |
| 2026-05-05 14:26 | 33.26598 | 49.07885 | 37021 ft | 486 kts | 154° |
| 2026-05-05 14:27 | 33.21055 | 49.12647 | 36955 ft | 497 kts | 153° |
| 2026-05-05 14:27 | 33.15445 | 49.17509 | 36945 ft | 495 kts | 153° |
| 2026-05-05 14:28 | 33.09901 | 49.22278 | 36950 ft | 493 kts | 154° |
| 2026-05-05 14:28 | 33.04327 | 49.27044 | 36938 ft | 494 kts | 154° |
| 2026-05-05 14:29 | 32.98718 | 49.31824 | 36950 ft | 496 kts | 154° |
| 2026-05-05 14:29 | 32.93084 | 49.36615 | 36951 ft | 498 kts | 154° |
| 2026-05-05 14:30 | 32.87437 | 49.41414 | 36944 ft | 498 kts | 154° |
| 2026-05-05 14:30 | 32.81839 | 49.46166 | 36962 ft | 497 kts | 154° |
| 2026-05-05 14:31 | 32.76173 | 49.50966 | 36950 ft | 496 kts | 154° |
| 2026-05-05 14:31 | 32.70575 | 49.55707 | 36955 ft | 497 kts | 154° |
| 2026-05-05 14:32 | 32.67760 | 49.58079 | 36829 ft | 493 kts | 154° |
| 2026-05-05 14:32 | 32.64985 | 49.60434 | 36996 ft | 493 kts | 154° |
| 2026-05-05 14:32 | 32.59330 | 49.65209 | 36959 ft | 500 kts | 154° |
| 2026-05-05 14:33 | 32.53630 | 49.69994 | 36935 ft | 502 kts | 154° |
| 2026-05-05 14:33 | 32.47976 | 49.74734 | 36850 ft | 501 kts | 154° |
| 2026-05-05 14:34 | 32.42374 | 49.79440 | 36962 ft | 486 kts | 154° |
| 2026-05-05 14:34 | 32.36839 | 49.84101 | 36987 ft | 496 kts | 154° |
| 2026-05-05 14:35 | 32.31146 | 49.88850 | 36954 ft | 504 kts | 154° |
| 2026-05-05 14:35 | 32.25417 | 49.93633 | 36844 ft | 503 kts | 154° |
| 2026-05-05 14:36 | 32.22560 | 49.96019 | 36946 ft | 494 kts | 154° |
| 2026-05-05 14:36 | 32.19750 | 49.98349 | 36848 ft | 494 kts | 154° |
| 2026-05-05 14:36 | 32.16945 | 50.00683 | 36963 ft | 492 kts | 154° |
| 2026-05-05 14:36 | 32.14161 | 50.03012 | 36954 ft | 496 kts | 154° |
| 2026-05-05 14:37 | 32.08492 | 50.07733 | 36938 ft | 504 kts | 154° |
| 2026-05-05 14:37 | 32.02731 | 50.12513 | 36959 ft | 507 kts | 154° |
| 2026-05-05 14:38 | 31.97004 | 50.17272 | 36931 ft | 499 kts | 154° |
| 2026-05-05 14:38 | 31.91364 | 50.21948 | 36948 ft | 498 kts | 154° |
| 2026-05-05 14:39 | 31.85693 | 50.26624 | 36939 ft | 498 kts | 154° |
| 2026-05-05 14:39 | 31.80001 | 50.31320 | 36940 ft | 496 kts | 155° |
| 2026-05-05 14:40 | 31.74365 | 50.35959 | 36943 ft | 496 kts | 155° |
| 2026-05-05 14:40 | 31.68680 | 50.40633 | 36950 ft | 500 kts | 154° |
| 2026-05-05 14:41 | 31.63010 | 50.45290 | 36970 ft | 498 kts | 154° |
| 2026-05-05 14:41 | 31.57307 | 50.49970 | 36953 ft | 501 kts | 155° |
| 2026-05-05 14:42 | 31.51605 | 50.54648 | 36971 ft | 499 kts | 154° |
| 2026-05-05 14:42 | 31.45904 | 50.59309 | 36949 ft | 504 kts | 155° |
| 2026-05-05 14:43 | 31.40126 | 50.64022 | 36962 ft | 503 kts | 155° |
| 2026-05-05 14:43 | 31.34406 | 50.68678 | 36858 ft | 501 kts | 155° |
| 2026-05-05 14:44 | 31.28761 | 50.73288 | 37035 ft | 497 kts | 155° |
| 2026-05-05 14:44 | 31.22992 | 50.77963 | 36925 ft | 505 kts | 155° |
| 2026-05-05 14:45 | 31.17250 | 50.82627 | 36947 ft | 502 kts | 155° |
| 2026-05-05 14:45 | 31.11521 | 50.87274 | 36966 ft | 501 kts | 155° |
| 2026-05-05 14:46 | 31.05787 | 50.91908 | 36959 ft | 501 kts | 155° |
| 2026-05-05 14:46 | 31.00062 | 50.96532 | 36956 ft | 502 kts | 155° |
| 2026-05-05 14:47 | 30.94338 | 51.01148 | 36957 ft | 503 kts | 155° |
| 2026-05-05 14:47 | 30.88544 | 51.05815 | 36976 ft | 505 kts | 155° |
| 2026-05-05 14:48 | 30.82772 | 51.10458 | 36992 ft | 507 kts | 155° |
| 2026-05-05 14:48 | 30.76958 | 51.15128 | 36999 ft | 508 kts | 155° |
| 2026-05-05 14:49 | 30.71161 | 51.19780 | 37037 ft | 508 kts | 155° |
| 2026-05-05 14:49 | 30.65338 | 51.24441 | 37037 ft | 507 kts | 155° |
| 2026-05-05 14:50 | 30.59552 | 51.29068 | 37071 ft | 504 kts | 155° |
| 2026-05-05 14:50 | 30.53753 | 51.33698 | 37066 ft | 506 kts | 155° |
| 2026-05-05 14:51 | 30.47948 | 51.38327 | 37051 ft | 506 kts | 155° |
| 2026-05-05 14:51 | 30.42098 | 51.42832 | 37020 ft | 500 kts | 160° |
| 2026-05-05 14:52 | 30.35933 | 51.46170 | 36996 ft | 486 kts | 170° |
| 2026-05-05 14:52 | 30.29574 | 51.48884 | 36959 ft | 487 kts | 170° |
| 2026-05-05 14:53 | 30.23207 | 51.51696 | 36965 ft | 488 kts | 169° |
| 2026-05-05 14:53 | 30.16872 | 51.54507 | 36975 ft | 487 kts | 169° |
| 2026-05-05 14:54 | 30.10577 | 51.57284 | 36974 ft | 487 kts | 170° |
| 2026-05-05 14:54 | 30.04200 | 51.60091 | 37005 ft | 487 kts | 170° |
| 2026-05-05 14:55 | 29.97866 | 51.62878 | 36978 ft | 489 kts | 169° |
| 2026-05-05 14:55 | 29.91523 | 51.65669 | 37021 ft | 489 kts | 169° |
| 2026-05-05 14:56 | 29.85149 | 51.68467 | 37005 ft | 491 kts | 169° |
| 2026-05-05 14:56 | 29.78784 | 51.71256 | 37005 ft | 491 kts | 169° |
| 2026-05-05 14:57 | 29.72376 | 51.74063 | 37014 ft | 491 kts | 169° |
| 2026-05-05 14:57 | 29.65997 | 51.76854 | 37023 ft | 491 kts | 169° |
| 2026-05-05 14:58 | 29.59602 | 51.79647 | 37005 ft | 490 kts | 169° |
| 2026-05-05 14:58 | 29.53262 | 51.82412 | 37016 ft | 489 kts | 169° |
| 2026-05-05 14:59 | 29.46891 | 51.85185 | 37001 ft | 490 kts | 169° |
| 2026-05-05 14:59 | 29.40519 | 51.87957 | 37017 ft | 489 kts | 169° |
| 2026-05-05 15:00 | 29.35212 | 51.90261 | 36999 ft | 490 kts | 169° |
| 2026-05-05 15:00 | 29.27748 | 51.93498 | 36991 ft | 491 kts | 169° |
| 2026-05-05 15:01 | 29.21358 | 51.96266 | 36992 ft | 491 kts | 169° |
| 2026-05-05 15:01 | 29.14955 | 51.99037 | 36983 ft | 492 kts | 169° |
| 2026-05-05 15:02 | 29.08588 | 52.01788 | 36974 ft | 492 kts | 169° |
| 2026-05-05 15:02 | 29.02184 | 52.04551 | 36972 ft | 492 kts | 169° |
| 2026-05-05 15:03 | 28.95764 | 52.07318 | 36959 ft | 493 kts | 169° |
| 2026-05-05 15:03 | 28.89376 | 52.10319 | 36945 ft | 503 kts | 163° |
| 2026-05-05 15:04 | 28.83296 | 52.14495 | 36947 ft | 513 kts | 157° |
| 2026-05-05 15:04 | 28.77348 | 52.18904 | 36929 ft | 513 kts | 157° |
| 2026-05-05 15:05 | 28.68352 | 52.25444 | 36912 ft | 510 kts | 157° |
| 2026-05-05 15:06 | 28.62368 | 52.29745 | 36931 ft | 508 kts | 157° |
| 2026-05-05 15:06 | 28.56370 | 52.34057 | 36909 ft | 507 kts | 157° |
| 2026-05-05 15:07 | 28.50396 | 52.38346 | 36868 ft | 507 kts | 157° |
| 2026-05-05 15:07 | 28.44470 | 52.42583 | 36896 ft | 505 kts | 157° |
| 2026-05-05 15:08 | 28.38516 | 52.46840 | 36869 ft | 507 kts | 157° |
| 2026-05-05 15:08 | 28.32534 | 52.51115 | 36847 ft | 507 kts | 157° |
| 2026-05-05 15:09 | 28.26564 | 52.55375 | 36856 ft | 507 kts | 157° |
| 2026-05-05 15:09 | 28.20572 | 52.59645 | 36854 ft | 507 kts | 157° |
| 2026-05-05 15:10 | 28.14614 | 52.63885 | 36837 ft | 508 kts | 157° |
| 2026-05-05 15:10 | 28.08654 | 52.68119 | 36841 ft | 507 kts | 157° |
| 2026-05-05 15:11 | 28.02671 | 52.72366 | 36831 ft | 507 kts | 157° |
| 2026-05-05 15:11 | 27.97666 | 52.75913 | 36835 ft | 506 kts | 157° |
| 2026-05-05 15:12 | 27.91732 | 52.80115 | 36832 ft | 506 kts | 157° |
| 2026-05-05 15:12 | 27.85775 | 52.84326 | 36790 ft | 503 kts | 157° |
| 2026-05-05 15:13 | 27.79864 | 52.88501 | 36854 ft | 499 kts | 157° |
| 2026-05-05 15:13 | 27.73970 | 52.92656 | 36831 ft | 503 kts | 157° |
| 2026-05-05 15:14 | 27.67992 | 52.96863 | 36835 ft | 506 kts | 156° |
| 2026-05-05 15:14 | 27.62030 | 53.01057 | 36830 ft | 507 kts | 156° |
| 2026-05-05 15:15 | 27.56021 | 53.05279 | 36831 ft | 508 kts | 156° |
| 2026-05-05 15:15 | 27.50034 | 53.09481 | 36833 ft | 508 kts | 156° |
| 2026-05-05 15:16 | 27.44058 | 53.13670 | 36831 ft | 508 kts | 156° |
| 2026-05-05 15:16 | 27.37947 | 53.17618 | 36828 ft | 498 kts | 163° |
| 2026-05-05 15:17 | 27.31566 | 53.20279 | 36828 ft | 485 kts | 173° |
| 2026-05-05 15:17 | 27.25016 | 53.22236 | 36822 ft | 485 kts | 173° |
| 2026-05-05 15:18 | 27.18495 | 53.24185 | 36822 ft | 486 kts | 173° |
| 2026-05-05 15:18 | 27.11962 | 53.26179 | 36810 ft | 487 kts | 173° |
| 2026-05-05 15:19 | 27.05402 | 53.28195 | 36799 ft | 488 kts | 173° |
| 2026-05-05 15:19 | 27.03261 | 53.28852 | 36798 ft | 488 kts | 173° |